createdAt,value
2018-06-19T00:02:23.192Z,51.10
2018-06-19T00:07:14.092Z,51.10
2018-06-19T00:12:04.979Z,51.00
2018-06-19T00:16:55.892Z,51.20
2018-06-19T00:21:47.541Z,51.20
2018-06-19T00:26:38.434Z,51.20
2018-06-19T00:31:30.084Z,51.40
2018-06-19T00:36:21.721Z,51.20
2018-06-19T00:41:12.645Z,51.10
2018-06-19T00:46:03.561Z,51.30
2018-06-19T00:50:54.457Z,51.20
2018-06-19T00:55:46.109Z,51.70
2018-06-19T01:00:37.739Z,51.20
2018-06-19T01:05:29.374Z,51.00
2018-06-19T01:10:21.045Z,50.90
2018-06-19T01:15:11.952Z,50.90
2018-06-19T01:20:02.847Z,51.30
2018-06-19T01:24:54.506Z,50.70
2018-06-19T01:29:45.450Z,50.60
2018-06-19T01:34:36.371Z,50.50
2018-06-19T01:39:27.267Z,50.40
2018-06-19T01:44:18.174Z,50.50
2018-06-19T01:49:09.062Z,50.60
2018-06-19T01:53:59.961Z,50.70
2018-06-19T01:58:51.607Z,51.00
2018-06-19T02:03:42.498Z,51.00
2018-06-19T02:08:33.416Z,51.10
2018-06-19T02:13:24.319Z,51.20
2018-06-19T02:18:15.215Z,51.50
2018-06-19T02:23:06.123Z,51.60
2018-06-19T02:27:57.755Z,51.60
2018-06-19T02:32:49.399Z,51.60
2018-06-19T02:37:40.300Z,51.50
2018-06-19T02:42:31.980Z,51.90
2018-06-19T02:47:22.931Z,51.80
2018-06-19T02:52:13.845Z,52.00
2018-06-19T02:57:04.740Z,52.00
2018-06-19T03:01:55.652Z,52.00
2018-06-19T03:06:46.562Z,52.00
2018-06-19T03:11:37.459Z,52.00
2018-06-19T03:16:29.111Z,52.80
2018-06-19T03:21:20.011Z,52.80
2018-06-19T03:26:11.662Z,53.30
2018-06-19T03:31:02.558Z,53.20
2018-06-19T03:35:54.265Z,54.10
2018-06-19T03:40:45.161Z,54.00
2018-06-19T03:45:36.067Z,54.40
2018-06-19T03:50:26.976Z,54.30
2018-06-19T03:55:17.931Z,54.30
2018-06-19T04:00:08.848Z,54.60
2018-06-19T04:04:59.778Z,54.00
2018-06-19T04:09:50.667Z,54.40
2018-06-19T04:14:41.577Z,54.10
2018-06-19T04:19:32.467Z,54.10
2018-06-19T04:24:24.107Z,53.70
2018-06-19T04:29:15.757Z,53.70
2018-06-19T04:34:06.663Z,53.60
2018-06-19T04:38:58.311Z,53.80
2018-06-19T04:43:49.204Z,53.70
2018-06-19T04:48:40.885Z,53.40
2018-06-19T04:53:31.781Z,53.40
2018-06-19T04:58:23.426Z,54.10
2018-06-19T05:03:14.311Z,54.10
2018-06-19T05:08:05.975Z,55.10
2018-06-19T05:12:56.883Z,55.00
2018-06-19T05:17:47.791Z,55.50
2018-06-19T05:22:39.449Z,55.60
2018-06-19T05:27:30.355Z,55.50
2018-06-19T05:32:21.243Z,55.60
2018-06-19T05:37:12.134Z,55.60
2018-06-19T05:42:03.036Z,55.60
2018-06-19T05:46:53.923Z,55.90
2018-06-19T05:51:45.555Z,56.80
2018-06-19T05:56:37.199Z,56.70
2018-06-19T06:01:28.110Z,56.70
2018-06-19T06:06:19.743Z,56.30
2018-06-19T06:11:11.389Z,56.30
2018-06-19T06:16:02.286Z,56.20
2018-06-19T06:20:53.921Z,56.30
2018-06-19T06:25:45.575Z,56.30
2018-06-19T06:30:36.533Z,56.20
2018-06-19T06:35:27.434Z,56.10
2018-06-19T06:40:18.324Z,56.10
2018-06-19T06:45:09.965Z,56.20
2018-06-19T06:50:00.865Z,56.00
2018-06-19T06:54:52.736Z,55.90
2018-06-19T06:59:43.642Z,55.70
2018-06-19T07:04:35.275Z,55.60
2018-06-19T07:09:26.923Z,55.50
2018-06-19T07:14:17.812Z,55.50
2018-06-19T07:19:09.710Z,55.00
2018-06-19T07:24:01.127Z,54.70
2018-06-19T07:28:52.012Z,54.60
2018-06-19T07:33:43.635Z,54.20
2018-06-19T07:38:35.818Z,53.60
2018-06-19T07:43:26.708Z,54.10
2018-06-19T07:48:18.346Z,53.80
2018-06-19T07:53:10.209Z,53.70
2018-06-19T07:58:01.117Z,53.60
2018-06-19T08:02:52.025Z,53.60
2018-06-19T08:07:43.691Z,53.10
2018-06-19T08:12:34.582Z,53.10
2018-06-19T08:17:25.485Z,53.10
2018-06-19T08:22:17.127Z,52.40
2018-06-19T08:27:08.764Z,52.30
2018-06-19T08:32:00.395Z,52.10
2018-06-19T08:36:52.034Z,52.00
2018-06-19T08:41:43.665Z,51.80
2018-06-19T08:46:35.295Z,51.70
2018-06-19T08:51:26.194Z,51.60
2018-06-19T08:56:17.099Z,51.30
2018-06-19T09:01:07.991Z,51.30
2018-06-19T09:05:58.874Z,51.30
2018-06-19T09:10:50.585Z,51.00
2018-06-19T09:15:41.499Z,51.00
2018-06-19T09:20:32.388Z,51.00
2018-06-19T09:25:23.274Z,50.80
2018-06-19T09:30:14.911Z,50.70
2018-06-19T09:35:06.561Z,50.60
2018-06-19T09:39:57.488Z,50.50
2018-06-19T09:44:48.379Z,50.30
2018-06-19T09:49:40.015Z,50.10
2018-06-19T09:54:31.668Z,50.00
2018-06-19T09:59:22.623Z,50.00
2018-06-19T10:04:13.479Z,49.70
2018-06-19T10:09:05.120Z,49.10
2018-06-19T10:13:56.755Z,48.70
2018-06-19T10:18:48.394Z,48.40
2018-06-19T10:23:40.050Z,48.20
2018-06-19T10:28:31.007Z,48.10
2018-06-19T10:33:21.870Z,47.70
2018-06-19T10:38:13.503Z,47.20
2018-06-19T10:43:05.138Z,47.10
2018-06-19T10:47:56.766Z,47.20
2018-06-19T10:52:48.408Z,47.70
2018-06-19T10:57:39.307Z,47.10
2018-06-19T11:02:30.220Z,47.00
2018-06-19T11:07:21.874Z,46.80
2018-06-19T11:12:13.523Z,46.70
2018-06-19T11:17:04.423Z,46.70
2018-06-19T11:21:56.056Z,46.60
2018-06-19T11:26:47.700Z,46.60
2018-06-19T11:31:39.343Z,46.40
2018-06-19T11:36:30.266Z,46.40
2018-06-19T11:41:21.175Z,46.40
2018-06-19T11:46:12.811Z,46.40
2018-06-19T11:51:04.447Z,46.40
2018-06-19T11:55:56.086Z,46.30
2018-06-19T12:00:46.999Z,46.40
2018-06-19T12:05:38.652Z,45.90
2018-06-19T12:10:29.581Z,45.80
2018-06-19T12:15:20.494Z,45.60
2018-06-19T12:20:11.405Z,45.50
2018-06-19T12:25:02.300Z,45.70
2018-06-19T12:29:53.956Z,44.90
2018-06-19T12:34:44.859Z,45.50
2018-06-19T12:39:36.509Z,44.10
2018-06-19T12:44:27.399Z,44.20
2018-06-19T12:49:18.305Z,44.20
2018-06-19T12:54:12.199Z,43.80
2018-06-19T12:59:03.104Z,44.10
2018-06-19T13:09:31.571Z,44.50
2018-06-19T13:14:32.405Z,43.30
2018-06-19T13:24:51.491Z,42.90
2018-06-19T13:35:11.311Z,41.60
2018-06-19T13:40:02.263Z,41.20
2018-06-19T13:44:53.896Z,41.70
2018-06-19T13:49:44.826Z,41.70
2018-06-19T13:54:36.468Z,41.50
2018-06-19T13:59:28.098Z,41.60
2018-06-19T14:04:19.744Z,42.10
2018-06-19T14:09:10.634Z,42.00
2018-06-19T14:14:01.568Z,42.30
2018-06-19T14:18:53.199Z,42.80
2018-06-19T14:23:44.849Z,43.30
2018-06-19T14:28:35.811Z,43.20
2018-06-19T14:33:26.721Z,43.60
2018-06-19T14:38:17.607Z,44.20
2018-06-19T14:43:08.514Z,44.60
2018-06-19T14:48:00.142Z,45.50
2018-06-19T14:52:51.034Z,45.40
2018-06-19T14:57:41.925Z,46.40
2018-06-19T15:02:32.806Z,46.00
2018-06-19T15:07:24.423Z,46.70
2018-06-19T15:12:16.087Z,46.80
2018-06-19T15:17:07.720Z,47.10
2018-06-19T15:22:06.424Z,47.40
2018-06-19T15:26:58.066Z,47.60
2018-06-19T15:31:48.973Z,47.50
2018-06-19T15:36:40.603Z,48.00
2018-06-19T15:41:32.249Z,48.30
2018-06-19T15:46:23.161Z,48.20
2018-06-19T15:51:14.853Z,48.50
2018-06-19T15:56:05.756Z,48.50
2018-06-19T16:00:56.639Z,48.50
2018-06-19T16:05:47.629Z,48.40
2018-06-19T16:10:38.522Z,48.50
2018-06-19T16:15:29.440Z,48.60
2018-06-19T16:20:20.324Z,48.60
2018-06-19T16:25:11.273Z,48.70
2018-06-19T16:30:02.282Z,48.50
2018-06-19T16:34:53.185Z,48.50
2018-06-19T16:39:44.094Z,48.60
2018-06-19T16:44:35.043Z,48.70
2018-06-19T16:49:25.971Z,48.70
2018-06-19T16:54:16.855Z,48.60
2018-06-19T16:59:07.769Z,48.70
2018-06-19T17:03:58.660Z,48.70
2018-06-19T17:08:50.368Z,49.40
2018-06-19T17:13:41.397Z,48.80
2018-06-19T17:18:32.238Z,49.00
2018-06-19T17:23:23.934Z,49.20
2018-06-19T17:28:14.815Z,49.20
2018-06-19T17:33:05.779Z,49.20
2018-06-19T17:37:56.672Z,49.30
2018-06-19T17:42:47.550Z,49.40
2018-06-19T17:47:39.294Z,49.80
2018-06-19T17:52:30.923Z,49.90
2018-06-19T17:57:22.581Z,50.00
2018-06-19T18:02:14.244Z,50.10
2018-06-19T18:07:05.130Z,50.00
2018-06-19T18:11:56.085Z,50.10
2018-06-19T18:16:46.977Z,50.10
2018-06-19T18:21:37.937Z,50.20
2018-06-19T18:26:28.844Z,50.30
2018-06-19T18:31:19.773Z,50.10
2018-06-19T18:36:10.683Z,50.10
2018-06-19T18:41:01.573Z,50.00
2018-06-19T18:45:52.492Z,49.90
2018-06-19T18:50:43.440Z,49.70
2018-06-19T18:55:34.347Z,49.60
2018-06-19T19:00:25.304Z,49.70
2018-06-19T19:05:16.298Z,49.60
2018-06-19T19:10:08.038Z,49.90
2018-06-19T19:14:58.950Z,49.90
2018-06-19T19:19:49.853Z,50.00
2018-06-19T19:24:40.755Z,50.20
2018-06-19T19:29:37.806Z,50.10
2018-06-19T19:34:29.442Z,50.50
2018-06-19T19:39:21.967Z,50.40
2018-06-19T19:44:12.864Z,50.40
2018-06-19T19:49:03.773Z,50.50
2018-06-19T19:53:55.418Z,50.70
2018-06-19T19:58:48.306Z,50.60
2018-06-19T20:03:39.204Z,50.60
2018-06-19T20:08:30.121Z,50.60
2018-06-19T20:13:21.025Z,50.70
2018-06-19T20:18:11.928Z,50.90
2018-06-19T20:23:02.849Z,51.00
2018-06-19T20:27:53.755Z,51.20
2018-06-19T20:32:44.945Z,51.10
2018-06-19T20:37:36.574Z,51.70
2018-06-19T20:42:27.467Z,51.20
2018-06-19T20:47:18.381Z,51.30
2018-06-19T20:52:09.274Z,51.50
2018-06-19T20:57:00.219Z,51.60
2018-06-19T21:01:51.143Z,51.70
2018-06-19T21:06:42.063Z,51.50
2018-06-19T21:11:32.963Z,51.60
2018-06-19T21:16:23.892Z,52.60
2018-06-19T21:21:14.777Z,52.00
2018-06-19T21:26:05.662Z,52.00
2018-06-19T21:30:56.550Z,52.20
2018-06-19T21:35:47.854Z,52.20
2018-06-19T21:40:38.778Z,52.50
2018-06-19T21:45:29.679Z,52.50
2018-06-19T21:50:20.622Z,52.40
2018-06-19T21:55:11.524Z,52.30
2018-06-19T22:00:02.410Z,52.50
2018-06-19T22:04:54.096Z,52.90
2018-06-19T22:09:44.988Z,52.80
2018-06-19T22:14:35.887Z,52.90
2018-06-19T22:19:27.533Z,53.00
2018-06-19T22:24:18.441Z,52.90
2018-06-19T22:29:10.078Z,53.10
2018-06-19T22:34:01.748Z,53.10
2018-06-19T22:38:52.665Z,53.10
2018-06-19T22:43:43.575Z,53.10
2018-06-19T22:48:34.484Z,53.20
2018-06-19T22:53:25.371Z,53.40
2018-06-19T22:58:17.005Z,53.60
2018-06-19T23:03:07.903Z,53.40
2018-06-19T23:07:58.825Z,53.60
2018-06-19T23:12:49.740Z,53.70
2018-06-19T23:17:40.630Z,53.60
2018-06-19T23:22:31.666Z,53.60
2018-06-19T23:27:22.604Z,53.60
2018-06-19T23:32:13.494Z,53.80
2018-06-19T23:37:04.401Z,53.90
2018-06-19T23:41:55.313Z,53.90
2018-06-19T23:46:46.267Z,54.00
2018-06-19T23:51:37.158Z,53.80
2018-06-19T23:56:28.091Z,53.80
